createdAt,value
2017-10-09T00:00:16.970Z,2
2017-10-09T00:02:17.741Z,8.4
2017-10-09T00:04:21.536Z,0.7
2017-10-09T00:06:17.362Z,0.8
2017-10-09T00:08:21.160Z,2.2
2017-10-09T00:10:17.984Z,5.2
2017-10-09T00:12:16.817Z,2.1
2017-10-09T00:14:21.609Z,0.6
2017-10-09T00:16:17.401Z,4.4
2017-10-09T00:18:18.204Z,2.4
2017-10-09T00:20:18.026Z,2.3
2017-10-09T00:22:20.799Z,3.6
2017-10-09T00:24:17.622Z,4.7
2017-10-09T00:26:18.438Z,0.9
2017-10-09T00:28:21.200Z,0.5
2017-10-09T00:30:17.031Z,5
2017-10-09T00:32:20.823Z,1.3
2017-10-09T00:34:17.644Z,4.8
2017-10-09T00:36:17.452Z,1.9
2017-10-09T00:38:21.238Z,3.8
2017-10-09T00:40:18.066Z,2.4
2017-10-09T00:42:20.824Z,2.7
2017-10-09T00:44:17.642Z,9.9
2017-10-09T00:46:17.481Z,1.7
2017-10-09T00:48:18.280Z,2.4
2017-10-09T00:50:18.058Z,1
2017-10-09T00:52:16.840Z,4.6
2017-10-09T00:54:17.667Z,2
2017-10-09T00:56:17.453Z,5.7
2017-10-09T00:58:21.220Z,5.3
2017-10-09T01:00:21.012Z,2.7
2017-10-09T01:02:20.823Z,5.5
2017-10-09T01:04:18.653Z,2.8
2017-10-09T01:06:17.408Z,1
2017-10-09T01:08:18.153Z,4.9
2017-10-09T01:10:17.974Z,1.8
2017-10-09T01:12:17.769Z,9.5
2017-10-09T01:14:18.563Z,2.7
2017-10-09T01:16:18.322Z,3.9
2017-10-09T01:18:18.115Z,1.7
2017-10-09T01:20:20.895Z,3
2017-10-09T01:22:17.696Z,2.1
2017-10-09T01:24:17.488Z,3.9
2017-10-09T01:26:17.274Z,4.4
2017-10-09T01:28:18.078Z,4.1
2017-10-09T01:30:17.851Z,3.3
2017-10-09T01:32:17.644Z,6.3
2017-10-09T01:34:17.458Z,4.3
2017-10-09T01:36:18.251Z,10
2017-10-09T01:38:18.029Z,7.4
2017-10-09T01:40:17.815Z,3.5
2017-10-09T01:42:18.586Z,4.6
2017-10-09T01:44:18.373Z,5.4
2017-10-09T01:46:18.172Z,8.5
2017-10-09T01:48:17.931Z,3.4
2017-10-09T01:50:20.706Z,4.9
2017-10-09T01:52:21.497Z,2.8
2017-10-09T01:54:21.277Z,4.1
2017-10-09T01:56:17.088Z,2.9
2017-10-09T01:58:17.869Z,2.2
2017-10-09T02:00:18.664Z,2.7
2017-10-09T02:02:21.466Z,1.3
2017-10-09T02:04:21.229Z,0.9
2017-10-09T02:06:17.084Z,1.9
2017-10-09T02:08:17.820Z,2.3
2017-10-09T02:10:17.617Z,2.3
2017-10-09T02:12:18.388Z,4.4
2017-10-09T02:14:21.168Z,7.2
2017-10-09T02:16:16.983Z,2.9
2017-10-09T02:18:17.758Z,2.1
2017-10-09T02:20:18.544Z,1.5
2017-10-09T02:22:18.325Z,5.1
2017-10-09T02:24:21.099Z,3
2017-10-09T02:26:17.901Z,1.7
2017-10-09T02:28:21.699Z,4.1
2017-10-09T02:30:18.523Z,3.7
2017-10-09T02:32:18.266Z,1.5
2017-10-09T02:34:21.056Z,5.2
2017-10-09T02:36:17.852Z,3.2
2017-10-09T02:38:21.627Z,4.2
2017-10-09T02:40:17.465Z,2
2017-10-09T02:42:18.213Z,3.2
2017-10-09T02:44:16.999Z,7.6
2017-10-09T02:46:17.802Z,4.7
2017-10-09T02:48:21.593Z,3.3
2017-10-09T02:50:21.388Z,2.6
2017-10-09T02:52:18.180Z,1
2017-10-09T02:54:20.974Z,7.6
2017-10-09T02:56:17.768Z,1.3
2017-10-09T02:58:17.587Z,5.4
2017-10-09T03:00:18.331Z,2.6
2017-10-09T03:02:17.152Z,5.9
2017-10-09T03:04:20.917Z,3
2017-10-09T03:06:17.713Z,1.2
2017-10-09T03:08:21.805Z,3.9
2017-10-09T03:10:17.294Z,2.7
2017-10-09T03:12:18.087Z,5.6
2017-10-09T03:14:18.090Z,2.5
2017-10-09T03:16:17.669Z,2.9
2017-10-09T03:18:18.437Z,3.6
2017-10-09T03:20:18.222Z,2.4
2017-10-09T03:22:20.985Z,2.1
2017-10-09T03:24:20.765Z,2.3
2017-10-09T03:26:17.559Z,3.1
2017-10-09T03:28:18.323Z,2
2017-10-09T03:30:18.111Z,3
2017-10-09T03:32:17.882Z,4.5
2017-10-09T03:34:21.648Z,4.5
2017-10-09T03:36:17.433Z,2.7
2017-10-09T03:38:18.220Z,8.9
2017-10-09T03:40:18.005Z,3.4
2017-10-09T03:42:17.739Z,1.6
2017-10-09T03:44:21.524Z,2.4
2017-10-09T03:46:18.349Z,2.9
2017-10-09T03:48:18.090Z,8.3
2017-10-09T03:50:17.880Z,1.1
2017-10-09T03:52:21.650Z,3.5
2017-10-09T03:54:21.435Z,2.6
2017-10-09T03:56:18.232Z,3.3
2017-10-09T03:58:18.010Z,0.9
2017-10-09T04:00:17.777Z,1.6
2017-10-09T04:02:21.554Z,4.6
2017-10-09T04:04:18.308Z,3.5
2017-10-09T04:06:17.110Z,6.9
2017-10-09T04:08:17.881Z,4.3
2017-10-09T04:10:17.668Z,1.6
2017-10-09T04:12:18.456Z,1.7
2017-10-09T04:14:18.264Z,2.8
2017-10-09T04:16:17.016Z,2
2017-10-09T04:18:17.777Z,5.3
2017-10-09T04:20:21.573Z,4.1
2017-10-09T04:22:18.348Z,1
2017-10-09T04:24:18.112Z,5.8
2017-10-09T04:26:17.921Z,4.1
2017-10-09T04:28:18.684Z,3.2
2017-10-09T04:30:18.425Z,5.1
2017-10-09T04:32:21.196Z,5.8
2017-10-09T04:34:20.990Z,1.5
2017-10-09T04:36:17.767Z,1.1
2017-10-09T04:38:18.527Z,2.9
2017-10-09T04:40:17.299Z,5.2
2017-10-09T04:42:21.111Z,4.9
2017-10-09T04:44:17.895Z,4.5
2017-10-09T04:46:17.661Z,6.5
2017-10-09T04:48:21.424Z,3.4
2017-10-09T04:50:21.195Z,6.4
2017-10-09T04:52:20.999Z,6.6
2017-10-09T04:54:17.772Z,2.4
2017-10-09T04:56:17.591Z,5.2
2017-10-09T04:58:18.327Z,1.9
2017-10-09T05:00:21.090Z,2.1
2017-10-09T05:02:20.851Z,4.5
2017-10-09T05:04:21.610Z,5.1
2017-10-09T05:06:17.436Z,5.6
2017-10-09T05:08:18.192Z,4.7
2017-10-09T05:10:17.972Z,2.5
2017-10-09T05:12:17.743Z,4.1
2017-10-09T05:14:18.497Z,4.9
2017-10-09T05:16:17.249Z,2.9
2017-10-09T05:18:18.020Z,5.6
2017-10-09T05:20:17.794Z,2.5
2017-10-09T05:22:18.565Z,5.5
2017-10-09T05:24:18.338Z,3.4
2017-10-09T05:26:18.076Z,8.2
2017-10-09T05:28:17.861Z,2.6
2017-10-09T05:30:18.605Z,1.3
2017-10-09T05:32:18.375Z,6.4
2017-10-09T05:34:18.125Z,5.5
2017-10-09T05:36:17.891Z,5.9
2017-10-09T05:38:18.646Z,12.5
2017-10-09T05:40:17.425Z,5.1
2017-10-09T05:42:18.176Z,9.1
2017-10-09T05:44:17.924Z,6.4
2017-10-09T05:46:17.693Z,5.1
2017-10-09T05:48:18.459Z,4.2
2017-10-09T05:50:18.220Z,9.2
2017-10-09T05:52:17.967Z,3.8
2017-10-09T05:54:17.721Z,4.6
2017-10-09T05:56:17.498Z,8.5
2017-10-09T05:58:18.240Z,7.2
2017-10-09T06:00:18.007Z,3.8
2017-10-09T06:02:17.756Z,2.8
2017-10-09T06:04:18.499Z,2.3
2017-10-09T06:06:17.233Z,1.7
2017-10-09T06:08:17.985Z,7.6
2017-10-09T06:10:17.721Z,4.6
2017-10-09T06:12:18.475Z,2
2017-10-09T06:14:18.216Z,2.6
2017-10-09T06:16:17.960Z,4.8
2017-10-09T06:18:17.705Z,4.6
2017-10-09T06:20:18.441Z,6
2017-10-09T06:22:18.180Z,4.1
2017-10-09T06:24:20.950Z,3.5
2017-10-09T06:26:17.712Z,6.6
2017-10-09T06:28:18.471Z,6.7
2017-10-09T06:30:18.212Z,8.7
2017-10-09T06:32:20.972Z,5
2017-10-09T06:34:17.780Z,6.6
2017-10-09T06:36:18.491Z,3.1
2017-10-09T06:38:18.265Z,5.4
2017-10-09T06:40:18.018Z,10.1
2017-10-09T06:42:17.797Z,9.5
2017-10-09T06:44:18.561Z,7.6
2017-10-09T06:46:17.307Z,11.5
2017-10-09T06:48:18.064Z,9
2017-10-09T06:50:17.859Z,6.1
2017-10-09T06:52:18.606Z,7.6
2017-10-09T06:54:18.388Z,11.7
2017-10-09T06:56:18.148Z,11.7
2017-10-09T06:58:17.914Z,8.3
2017-10-09T07:00:18.692Z,16.6
2017-10-09T07:02:18.458Z,10.2
2017-10-09T07:04:18.214Z,8.8
2017-10-09T07:06:16.987Z,8.9
2017-10-09T07:08:17.728Z,11.3
2017-10-09T07:10:17.488Z,8.4
2017-10-09T07:12:18.243Z,11.1
2017-10-09T07:14:21.008Z,9.2
2017-10-09T07:16:17.823Z,8.1
2017-10-09T07:18:18.540Z,13.4
2017-10-09T07:20:18.356Z,10.7
2017-10-09T07:22:18.083Z,9.1
2017-10-09T07:24:17.857Z,6.6
2017-10-09T07:26:17.620Z,9.5
2017-10-09T07:28:18.374Z,8.3
2017-10-09T07:30:18.179Z,9.3
2017-10-09T07:32:17.935Z,10.7
2017-10-09T07:34:17.679Z,10.9
2017-10-09T07:36:17.431Z,10.7
2017-10-09T07:38:18.209Z,9.2
2017-10-09T07:40:17.986Z,10.1
2017-10-09T07:42:17.745Z,8.4
2017-10-09T07:44:21.501Z,9.9
2017-10-09T07:46:17.291Z,10.6
2017-10-09T07:48:18.065Z,8.4
2017-10-09T07:50:20.843Z,9.4
2017-10-09T07:52:21.610Z,11
2017-10-09T07:54:21.381Z,6.3
2017-10-09T07:56:18.168Z,9.9
2017-10-09T07:58:17.953Z,6.8
2017-10-09T08:00:17.721Z,9
2017-10-09T08:02:18.484Z,11.1
2017-10-09T08:04:21.249Z,7.9
2017-10-09T08:06:17.060Z,8.4
2017-10-09T08:08:17.814Z,11.5
2017-10-09T08:10:17.601Z,7.9
2017-10-09T08:12:21.369Z,7.3
2017-10-09T08:14:21.161Z,6.1
2017-10-09T08:16:17.948Z,7.1
2017-10-09T08:18:17.727Z,8.2
2017-10-09T08:20:18.483Z,6.7
2017-10-09T08:22:18.247Z,6.3
2017-10-09T08:24:18.035Z,6.5
2017-10-09T08:26:17.809Z,5
2017-10-09T08:28:18.577Z,5.1
2017-10-09T08:30:18.329Z,6.7
2017-10-09T08:32:18.072Z,8.1
2017-10-09T08:34:17.872Z,6.9
2017-10-09T08:36:17.626Z,10
2017-10-09T08:38:21.381Z,7.8
2017-10-09T08:40:18.177Z,6.1
2017-10-09T08:42:17.936Z,7.8
2017-10-09T08:44:17.703Z,9.3
2017-10-09T08:46:17.492Z,6.2
2017-10-09T08:48:18.269Z,6.8
2017-10-09T08:50:18.043Z,7.6
2017-10-09T08:52:17.812Z,7.9
2017-10-09T08:54:21.604Z,11.1
2017-10-09T08:56:17.419Z,6.2
2017-10-09T08:58:18.204Z,4.9
2017-10-09T09:00:20.988Z,4.8
2017-10-09T09:02:20.767Z,6.1
2017-10-09T09:04:17.586Z,4.3
2017-10-09T09:06:17.399Z,6.4
2017-10-09T09:08:21.178Z,7.5
2017-10-09T09:10:17.993Z,2.9
2017-10-09T09:12:20.811Z,4
2017-10-09T09:14:18.602Z,5.4
2017-10-09T09:16:17.417Z,5.4
2017-10-09T09:18:18.248Z,3.6
2017-10-09T09:20:18.010Z,6.1
2017-10-09T09:22:16.853Z,3.9
2017-10-09T09:24:21.633Z,3.8
2017-10-09T09:26:17.463Z,2.7
2017-10-09T09:28:17.307Z,5.3
2017-10-09T09:30:18.120Z,4.5
2017-10-09T09:32:16.943Z,4
2017-10-09T09:34:20.727Z,5.2
2017-10-09T09:36:17.569Z,3.2
2017-10-09T09:38:17.399Z,4.2
2017-10-09T09:40:17.226Z,2.8
2017-10-09T09:42:17.069Z,4
2017-10-09T09:44:16.876Z,1.9
2017-10-09T09:46:17.718Z,2.2
2017-10-09T09:48:17.537Z,3.2
2017-10-09T09:50:17.386Z,3.5
2017-10-09T09:52:17.239Z,2.6
2017-10-09T09:54:21.031Z,2.8
2017-10-09T09:56:17.880Z,2.6
2017-10-09T09:58:17.738Z,1.4
2017-10-09T10:00:17.574Z,4.7
2017-10-09T10:02:17.390Z,1
2017-10-09T10:04:17.238Z,1.5
2017-10-09T10:06:21.027Z,3.6
2017-10-09T10:08:16.882Z,6
2017-10-09T10:10:17.716Z,1.5
2017-10-09T10:12:17.547Z,3.3
2017-10-09T10:14:21.360Z,54.6
2017-10-09T10:16:17.218Z,56.7
2017-10-09T10:18:18.076Z,29.6
2017-10-09T10:20:20.866Z,31.2
2017-10-09T10:22:17.735Z,6.5
2017-10-09T10:24:17.569Z,7.5
2017-10-09T10:26:18.440Z,15.3
2017-10-09T10:28:17.271Z,6.2
2017-10-09T10:30:21.120Z,1.4
2017-10-09T10:32:16.963Z,5.9
2017-10-09T10:34:16.806Z,3.3
2017-10-09T10:36:17.675Z,7
2017-10-09T10:38:17.553Z,0.5
2017-10-09T10:40:17.404Z,4.7
2017-10-09T10:42:17.272Z,4.5
2017-10-09T10:44:17.167Z,1.8
2017-10-09T10:46:18.032Z,0.6
2017-10-09T10:48:16.940Z,4.2
2017-10-09T10:50:16.779Z,0.5
2017-10-09T10:52:17.648Z,1.1
2017-10-09T10:54:17.536Z,1.5
2017-10-09T10:56:18.400Z,3.8
2017-10-09T10:58:17.283Z,0.8
2017-10-09T11:00:17.190Z,4.4
2017-10-09T11:02:17.073Z,2.3
2017-10-09T11:04:16.973Z,3.5
2017-10-09T11:06:17.846Z,6.7
2017-10-09T11:08:17.724Z,2.5
2017-10-09T11:10:17.631Z,3.5
2017-10-09T11:12:17.493Z,5.7
2017-10-09T11:14:17.383Z,47.9
2017-10-09T11:16:18.266Z,66.9
2017-10-09T11:18:17.165Z,37.4
2017-10-09T11:20:17.042Z,51.8
2017-10-09T11:22:16.940Z,54
2017-10-09T11:24:16.825Z,23.3
2017-10-09T11:26:17.678Z,7.8
2017-10-09T11:28:17.587Z,17.7
2017-10-09T11:30:17.446Z,14.7
2017-10-09T11:32:17.313Z,61.8
2017-10-09T11:34:17.227Z,29.2
2017-10-09T11:36:18.137Z,13.6
2017-10-09T11:38:16.978Z,13.3
2017-10-09T11:40:17.852Z,7
2017-10-09T11:42:17.761Z,8.3
2017-10-09T11:44:17.663Z,7.6
2017-10-09T11:46:17.539Z,7.5
2017-10-09T11:48:17.419Z,48.1
2017-10-09T11:50:17.314Z,20.4
2017-10-09T11:52:17.214Z,16.8
2017-10-09T11:54:17.102Z,16.8
2017-10-09T11:56:18.012Z,9
2017-10-09T11:58:16.924Z,4
2017-10-09T12:00:17.778Z,3.5
2017-10-09T12:02:17.695Z,4.1
2017-10-09T12:04:17.603Z,2.4
2017-10-09T12:06:17.498Z,1.5
2017-10-09T12:08:17.377Z,3.3
2017-10-09T12:10:18.285Z,3.3
2017-10-09T12:12:17.177Z,3.4
2017-10-09T12:14:17.044Z,2.5
2017-10-09T12:16:17.955Z,1.2
2017-10-09T12:18:17.851Z,1.3
2017-10-09T12:20:17.749Z,1.1
2017-10-09T12:22:17.621Z,1.7
2017-10-09T12:24:17.539Z,1
2017-10-09T12:26:18.430Z,2.9
2017-10-09T12:28:17.386Z,1.6
2017-10-09T12:30:17.268Z,1.7
2017-10-09T12:32:17.187Z,2
2017-10-09T12:34:17.085Z,1.4
2017-10-09T12:36:17.999Z,4.7
2017-10-09T12:38:16.910Z,3.7
2017-10-09T12:40:17.845Z,3.3
2017-10-09T12:42:17.719Z,3.4
2017-10-09T12:44:17.634Z,2.3
2017-10-09T12:46:17.523Z,0.5
2017-10-09T12:48:17.458Z,2.1
2017-10-09T12:50:17.368Z,3.1
2017-10-09T12:52:17.244Z,0.8
2017-10-09T12:54:17.151Z,4.2
2017-10-09T12:56:17.072Z,0.4
2017-10-09T12:58:17.001Z,3.1
2017-10-09T13:00:16.950Z,2.1
2017-10-09T13:02:16.846Z,6.7
2017-10-09T13:04:17.774Z,4.5
2017-10-09T13:06:17.704Z,1.7
2017-10-09T13:08:17.648Z,6.1
2017-10-09T13:10:17.582Z,3.2
2017-10-09T13:12:17.518Z,4.6
2017-10-09T13:14:17.454Z,9.6
2017-10-09T13:16:17.386Z,3
2017-10-09T13:18:17.307Z,3
2017-10-09T13:20:17.240Z,5.8
2017-10-09T13:22:17.188Z,4
2017-10-09T13:24:17.111Z,1.9
2017-10-09T13:26:18.042Z,1.2
2017-10-09T13:28:16.986Z,4.2
2017-10-09T13:30:16.888Z,3.2
2017-10-09T13:32:17.830Z,3
2017-10-09T13:34:17.786Z,3
2017-10-09T13:36:17.722Z,2.5
2017-10-09T13:38:17.609Z,1.1
2017-10-09T13:40:17.549Z,5.6
2017-10-09T13:42:17.469Z,9
2017-10-09T13:44:17.418Z,1.9
2017-10-09T13:46:18.323Z,2.2
2017-10-09T13:48:17.228Z,2.7
2017-10-09T13:50:17.147Z,5.6
2017-10-09T13:52:17.084Z,3.5
2017-10-09T13:54:17.002Z,4.1
2017-10-09T13:56:17.910Z,1.4
2017-10-09T13:58:17.854Z,2.1
2017-10-09T14:00:17.802Z,3.8
2017-10-09T14:02:17.707Z,3.3
2017-10-09T14:04:17.600Z,4.5
2017-10-09T14:06:17.527Z,1.1
2017-10-09T14:08:17.449Z,1.8
2017-10-09T14:10:17.388Z,3.8
2017-10-09T14:12:17.331Z,2.1
2017-10-09T14:14:17.245Z,3
2017-10-09T14:16:18.171Z,3
2017-10-09T14:18:17.105Z,1.6
2017-10-09T14:20:17.027Z,2.3
2017-10-09T14:22:16.956Z,2.1
2017-10-09T14:24:16.854Z,1.8
2017-10-09T14:26:17.817Z,0.7
2017-10-09T14:28:17.725Z,1.2
2017-10-09T14:30:17.633Z,1.1
2017-10-09T14:40:18.244Z,1.5
2017-10-09T14:42:17.154Z,4.6
2017-10-09T14:44:17.105Z,1.6
2017-10-09T14:46:16.974Z,3.1
2017-10-09T14:48:16.897Z,0.9
2017-10-09T14:50:17.793Z,4
2017-10-09T14:52:17.736Z,1.9
2017-10-09T14:54:17.663Z,4.5
2017-10-09T14:56:17.547Z,1.2
2017-10-09T14:58:17.462Z,2.1
2017-10-09T15:00:17.414Z,7.2
2017-10-09T15:02:17.302Z,3.2
2017-10-09T15:04:17.237Z,3.3
2017-10-09T15:06:17.151Z,5.1
2017-10-09T15:08:17.048Z,3.6
2017-10-09T15:10:17.948Z,2
2017-10-09T15:12:16.888Z,4.1
2017-10-09T15:14:17.809Z,1
2017-10-09T15:16:17.706Z,1.6
2017-10-09T15:18:18.600Z,1.4
2017-10-09T15:20:17.505Z,0.6
2017-10-09T15:22:17.419Z,2.7
2017-10-09T15:24:17.304Z,2.6
2017-10-09T15:26:17.189Z,3.8
2017-10-09T15:28:17.089Z,3.6
2017-10-09T15:30:17.003Z,3
2017-10-09T15:32:16.889Z,4.1
2017-10-09T15:34:17.760Z,6.5
2017-10-09T15:36:17.636Z,2.4
2017-10-09T15:38:17.558Z,6.7
2017-10-09T15:40:17.448Z,4.5
2017-10-09T15:42:17.305Z,2.3
2017-10-09T15:44:17.205Z,2.6
2017-10-09T15:46:18.079Z,3.7
2017-10-09T15:48:16.960Z,1.7
2017-10-09T15:50:16.803Z,7.8
2017-10-09T15:52:17.660Z,4.9
2017-10-09T15:54:17.542Z,4.4
2017-10-09T15:56:17.421Z,3
2017-10-09T15:58:17.284Z,5.2
2017-10-09T16:00:17.191Z,4.6
2017-10-09T16:02:17.040Z,3.4
2017-10-09T16:04:16.917Z,1.8
2017-10-09T16:06:17.755Z,2.1
2017-10-09T16:08:17.629Z,2
2017-10-09T16:10:17.482Z,5.4
2017-10-09T16:12:17.350Z,2.2
2017-10-09T16:14:17.210Z,4.4
2017-10-09T16:16:17.109Z,2
2017-10-09T16:18:17.945Z,1.6
2017-10-09T16:20:16.825Z,1.5
2017-10-09T16:22:17.692Z,3
2017-10-09T16:24:17.570Z,1
2017-10-09T16:26:17.480Z,3.2
2017-10-09T16:28:17.389Z,1.6
2017-10-09T16:30:17.258Z,0.6
2017-10-09T16:32:17.102Z,4.2
2017-10-09T16:34:16.988Z,4.6
2017-10-09T16:36:17.914Z,1.9
2017-10-09T16:38:17.778Z,0.6
2017-10-09T16:40:17.665Z,2.5
2017-10-09T16:42:17.546Z,2.4
2017-10-09T16:44:17.385Z,4.5
2017-10-09T16:46:17.267Z,2.5
2017-10-09T16:48:17.134Z,1.7
2017-10-09T16:50:16.982Z,3.8
2017-10-09T16:52:16.865Z,1.5
2017-10-09T16:54:17.768Z,2.2
2017-10-09T16:56:17.622Z,7.3
2017-10-09T16:58:17.498Z,1.2
2017-10-09T17:00:17.362Z,1.9
2017-10-09T17:02:17.259Z,3.5
2017-10-09T17:04:17.141Z,1.5
2017-10-09T17:06:18.014Z,1.4
2017-10-09T17:08:16.871Z,2.5
2017-10-09T17:10:17.739Z,2.7
2017-10-09T17:12:17.622Z,3.1
2017-10-09T17:14:17.522Z,2.4
2017-10-09T17:16:17.364Z,5.5
2017-10-09T17:18:17.291Z,1.5
2017-10-09T17:20:21.139Z,1.4
2017-10-09T17:22:17.022Z,2.2
2017-10-09T17:24:16.908Z,3.4
2017-10-09T17:26:17.761Z,3.4
2017-10-09T17:28:17.659Z,2.1
2017-10-09T17:30:17.526Z,1.8
2017-10-09T17:32:17.416Z,1.4
2017-10-09T17:34:17.242Z,2.1
2017-10-09T17:36:17.152Z,2
2017-10-09T17:38:17.030Z,2.3
2017-10-09T17:40:17.855Z,4.7
2017-10-09T17:42:17.714Z,5.7
2017-10-09T17:44:17.591Z,7.9
2017-10-09T17:46:17.494Z,1.2
2017-10-09T17:48:21.311Z,2.8
2017-10-09T17:50:21.183Z,3.5
2017-10-09T17:52:17.070Z,3.6
2017-10-09T17:54:16.951Z,2.1
2017-10-09T17:56:16.772Z,6.2
2017-10-09T17:58:17.636Z,1.7
2017-10-09T18:00:17.531Z,3.2
2017-10-09T18:02:17.354Z,4
2017-10-09T18:04:17.204Z,8.2
2017-10-09T18:06:18.133Z,5.6
2017-10-09T18:08:16.963Z,4.7
2017-10-09T18:10:17.853Z,5.2
2017-10-09T18:12:21.662Z,4.8
2017-10-09T18:14:17.536Z,1.6
2017-10-09T18:16:18.386Z,1.7
2017-10-09T18:18:18.243Z,3
2017-10-09T18:20:17.130Z,2.6
2017-10-09T18:22:20.958Z,5.2
2017-10-09T18:24:16.797Z,1.9
2017-10-09T18:26:17.645Z,3.7
2017-10-09T18:28:17.551Z,3
2017-10-09T18:30:18.326Z,3
2017-10-09T18:32:17.174Z,2.7
2017-10-09T18:34:17.036Z,5.5
2017-10-09T18:36:17.833Z,9.8
2017-10-09T18:38:17.717Z,4.7
2017-10-09T18:40:17.541Z,4
2017-10-09T18:42:17.443Z,4.3
2017-10-09T18:44:17.257Z,4
2017-10-09T18:46:17.114Z,4.8
2017-10-09T18:48:16.963Z,2.7
2017-10-09T18:50:16.837Z,3
2017-10-09T18:52:17.658Z,3.6
2017-10-09T18:54:17.529Z,4.1
2017-10-09T18:56:17.359Z,2.1
2017-10-09T18:58:17.233Z,2.9
2017-10-09T19:00:21.099Z,7.3
2017-10-09T19:02:20.887Z,3.2
2017-10-09T19:04:17.752Z,1.7
2017-10-09T19:06:17.644Z,2.9
2017-10-09T19:08:17.479Z,4.9
2017-10-09T19:10:17.321Z,4.5
2017-10-09T19:12:17.191Z,1.3
2017-10-09T19:14:17.039Z,3.7
2017-10-09T19:16:17.880Z,2.6
2017-10-09T19:18:17.752Z,4.2
2017-10-09T19:20:17.600Z,7.9
2017-10-09T19:22:17.422Z,4.5
2017-10-09T19:24:17.287Z,3.8
2017-10-09T19:26:18.149Z,4.9
2017-10-09T19:28:16.994Z,3.7
2017-10-09T19:30:16.841Z,1.7
2017-10-09T19:32:17.688Z,2.3
2017-10-09T19:34:17.562Z,4.3
2017-10-09T19:36:17.413Z,5.4
2017-10-09T19:38:17.266Z,3.5
2017-10-09T19:40:18.111Z,4
2017-10-09T19:42:16.987Z,2.4
2017-10-09T19:44:16.797Z,8
2017-10-09T19:46:17.648Z,3.2
2017-10-09T19:48:17.485Z,4.5
2017-10-09T19:50:17.362Z,4.7
2017-10-09T19:52:17.198Z,6.4
2017-10-09T19:54:17.063Z,3.1
2017-10-09T19:56:17.891Z,8.6
2017-10-09T19:58:17.761Z,5.7
2017-10-09T20:00:18.631Z,6.6
2017-10-09T20:02:17.472Z,3.2
2017-10-09T20:04:17.299Z,1.9
2017-10-09T20:06:18.173Z,2.2
2017-10-09T20:08:17.013Z,1.5
2017-10-09T20:10:17.881Z,3.1
2017-10-09T20:12:17.741Z,2.5
2017-10-09T20:14:17.551Z,2.5
2017-10-09T20:16:17.447Z,8
2017-10-09T20:18:18.312Z,5.3
2017-10-09T20:20:21.150Z,5.3
2017-10-09T20:22:17.003Z,5.8
2017-10-09T20:24:16.858Z,2.9
2017-10-09T20:26:17.725Z,1.7
2017-10-09T20:28:17.574Z,4.9
2017-10-09T20:30:17.437Z,4.1
2017-10-09T20:32:17.365Z,3.8
2017-10-09T20:34:18.134Z,4.8
2017-10-09T20:36:17.019Z,4.9
2017-10-09T20:38:16.854Z,5.9
2017-10-09T20:40:17.742Z,3.2
2017-10-09T20:42:17.595Z,3.4
2017-10-09T20:44:17.438Z,2.8
2017-10-09T20:46:17.305Z,2.9
2017-10-09T20:48:17.202Z,2.2
2017-10-09T20:50:21.021Z,4.8
2017-10-09T20:52:16.894Z,4.3
2017-10-09T20:54:17.735Z,4.1
2017-10-09T20:56:17.608Z,5.6
2017-10-09T20:58:17.446Z,3.9
2017-10-09T21:00:17.316Z,6.4
2017-10-09T21:02:17.153Z,1.1
2017-10-09T21:04:17.015Z,5.2
2017-10-09T21:06:17.846Z,1.9
2017-10-09T21:08:17.729Z,1.6
2017-10-09T21:10:17.576Z,3.6
2017-10-09T21:12:17.440Z,6.6
2017-10-09T21:14:17.294Z,1
2017-10-09T21:16:17.113Z,6.1
2017-10-09T21:18:18.001Z,9.7
2017-10-09T21:20:17.830Z,4.5
2017-10-09T21:22:17.699Z,4.8
2017-10-09T21:24:21.492Z,3.4
2017-10-09T21:26:17.371Z,4.1
2017-10-09T21:28:21.199Z,3.9
2017-10-09T21:30:17.096Z,2.6
2017-10-09T21:32:16.926Z,3.1
2017-10-09T21:34:17.798Z,2.2
2017-10-09T21:36:17.645Z,1.9
2017-10-09T21:38:17.495Z,2.2
2017-10-09T21:40:17.371Z,1.5
2017-10-09T21:42:17.249Z,1
2017-10-09T21:44:18.127Z,6.4
2017-10-09T21:46:16.920Z,1.4
2017-10-09T21:48:17.758Z,3.4
2017-10-09T21:50:17.596Z,2.7
2017-10-09T21:52:17.471Z,1.2
2017-10-09T21:54:17.332Z,1.1
2017-10-09T21:56:18.177Z,3
2017-10-09T21:58:17.045Z,2.5
2017-10-09T22:00:16.898Z,2.7
2017-10-09T22:02:17.771Z,2.3
2017-10-09T22:04:17.620Z,1.5
2017-10-09T22:06:17.462Z,2.3
2017-10-09T22:08:17.326Z,1.9
2017-10-09T22:10:18.214Z,1.7
2017-10-09T22:12:17.066Z,4.8
2017-10-09T22:14:16.932Z,1.7
2017-10-09T22:16:17.798Z,2.7
2017-10-09T22:18:18.648Z,2.1
2017-10-09T22:20:17.529Z,1.9
2017-10-09T22:22:17.392Z,1.5
2017-10-09T22:24:17.265Z,1.1
2017-10-09T22:26:18.084Z,5.9
2017-10-09T22:28:16.990Z,1.2
2017-10-09T22:30:16.846Z,6.6
2017-10-09T22:32:17.716Z,4.6
2017-10-09T22:34:17.588Z,3.6
2017-10-09T22:36:18.454Z,2.2
2017-10-09T22:38:17.297Z,3
2017-10-09T22:40:18.180Z,1.5
2017-10-09T22:42:17.024Z,3.7
2017-10-09T22:44:16.886Z,1.6
2017-10-09T22:46:17.745Z,3.1
2017-10-09T22:48:17.592Z,1.6
2017-10-09T22:50:17.462Z,2.1
2017-10-09T22:52:17.310Z,4.4
2017-10-09T22:54:17.186Z,4.3
2017-10-09T22:56:18.035Z,2.7
2017-10-09T22:58:16.929Z,2.3
2017-10-09T23:00:16.785Z,3
2017-10-09T23:02:21.635Z,1.8
2017-10-09T23:04:17.503Z,1.7
2017-10-09T23:06:17.341Z,2.5
2017-10-09T23:08:17.246Z,1.2
2017-10-09T23:10:18.111Z,2.9
2017-10-09T23:12:16.977Z,2.7
2017-10-09T23:14:16.851Z,1.5
2017-10-09T23:16:17.705Z,2.7
2017-10-09T23:18:21.597Z,3.3
2017-10-09T23:20:17.436Z,2.2
2017-10-09T23:22:17.328Z,2.2
2017-10-09T23:24:17.201Z,2.3
2017-10-09T23:26:18.047Z,4.3
2017-10-09T23:28:16.950Z,2.3
2017-10-09T23:30:20.763Z,2.8
2017-10-09T23:32:17.623Z,5.1
2017-10-09T23:34:17.507Z,3.6
2017-10-09T23:36:17.341Z,9.2
2017-10-09T23:38:17.183Z,2.3
2017-10-09T23:40:18.036Z,3.5
2017-10-09T23:42:16.910Z,3
2017-10-09T23:44:17.782Z,3.8
2017-10-09T23:46:17.607Z,3.4
2017-10-09T23:48:17.487Z,3.9
2017-10-09T23:50:17.337Z,6.2
2017-10-09T23:52:17.211Z,3.7
2017-10-09T23:54:18.075Z,3.5
2017-10-09T23:56:17.933Z,5.6
2017-10-09T23:58:16.806Z,2.9
